Time;durP1;ratioP1;P1;durP2;ratioP2;P2;SDS_P1;SDS_P2;PMS_P1;PMS_P2;Temp;Humidity;BMP_temperature;BMP_pressure;BME280_temperature;BME280_humidity;BME280_pressure;Samples;Min_cycle;Max_cycle;Signal;HPM_P1;HPM_P2
2023/06/23 00:01:45;;;;;;;;;7.00;7.00;;;;;;;;5047387;28;9589;-80
2023/06/23 00:04:12;;;;;;;;;5.00;5.00;;;;;;;;5051217;28;8877;-81
2023/06/23 00:06:40;;;;;;;;;7.25;7.25;;;;;;;;5054043;28;8983;-81
2023/06/23 00:09:13;;;;;;;;;7.75;7.75;;;;;;;;5052603;28;8874;-80
2023/06/23 00:11:41;;;;;;;;;9.00;9.00;;;;;;;;5061453;28;8863;-79
2023/06/23 00:14:12;;;;;;;;;7.00;7.00;;;;;;;;5047669;28;9001;-81
2023/06/23 00:16:43;;;;;;;;;10.25;8.25;;;;;;;;5059419;28;8873;-81
2023/06/23 00:19:11;;;;;;;;;8.00;6.50;;;;;;;;5049522;28;8872;-84
2023/06/23 00:21:45;;;;;;;;;7.75;6.50;;;;;;;;5050802;28;8873;-80
2023/06/23 00:24:12;;;;;;;;;10.50;10.50;;;;;;;;5061757;28;8877;-81
2023/06/23 00:26:39;;;;;;;;;8.00;8.00;;;;;;;;5059656;28;8857;-82
2023/06/23 00:29:06;;;;;;;;;7.25;7.25;;;;;;;;5050287;28;8883;-80
2023/06/23 00:31:34;;;;;;;;;9.00;7.25;;;;;;;;5049842;28;8797;-82
2023/06/23 00:34:03;;;;;;;;;10.50;7.75;;;;;;;;5040508;28;8978;-79
2023/06/23 00:36:30;;;;;;;;;7.25;7.25;;;;;;;;5047025;28;8932;-81
2023/06/23 00:38:57;;;;;;;;;5.50;5.50;;;;;;;;5059787;28;8857;-80
2023/06/23 00:41:27;;;;;;;;;7.50;7.50;;;;;;;;5050248;28;8854;-81
2023/06/23 00:43:59;;;;;;;;;8.75;7.75;;;;;;;;5061460;28;8834;-79
2023/06/23 00:46:28;;;;;;;;;9.25;8.00;;;;;;;;5067069;28;9002;-80
2023/06/23 00:48:56;;;;;;;;;9.00;7.25;;;;;;;;5065604;28;9762;-80
2023/06/23 00:51:25;;;;;;;;;7.75;7.75;;;;;;;;5053641;28;8865;-80
2023/06/23 00:53:53;;;;;;;;;6.00;5.75;;;;;;;;5051000;28;8853;-84
2023/06/23 00:56:21;;;;;;;;;8.25;7.00;;;;;;;;5057138;28;9605;-81
2023/06/23 00:58:49;;;;;;;;;6.50;6.50;;;;;;;;5050975;28;9578;-80
2023/06/23 01:01:16;;;;;;;;;8.25;8.25;;;;;;;;5044946;28;9623;-84
2023/06/23 01:03:44;;;;;;;;;8.75;8.75;;;;;;;;5049935;28;9025;-80
2023/06/23 01:06:17;;;;;;;;;8.75;8.75;;;;;;;;5048111;28;8867;-81
2023/06/23 01:08:49;;;;;;;;;7.75;6.50;;;;;;;;5059962;28;8863;-80
2023/06/23 01:11:23;;;;;;;;;6.50;6.00;;;;;;;;5050594;28;8979;-79
2023/06/23 01:13:59;;;;;;;;;11.25;9.00;;;;;;;;5049329;28;9678;-80
2023/06/23 01:16:31;;;;;;;;;8.00;8.00;;;;;;;;5041834;28;8841;-79
2023/06/23 01:19:03;;;;;;;;;7.50;7.50;;;;;;;;5050430;28;8887;-81
2023/06/23 01:21:33;;;;;;;;;7.50;7.50;;;;;;;;5046076;28;8881;-79
2023/06/23 01:24:16;;;;;;;;;10.25;7.50;;;;;;;;5052277;28;8915;-79
2023/06/23 01:27:09;;;;;;;;;9.75;7.75;;;;;;;;5067584;28;8866;-79
2023/06/23 01:29:39;;;;;;;;;9.25;9.25;;;;;;;;5047424;28;8967;-80
2023/06/23 01:32:11;;;;;;;;;7.00;7.00;;;;;;;;5048198;28;8830;-81
2023/06/23 01:34:40;;;;;;;;;8.00;8.00;;;;;;;;5041598;28;8861;-80
2023/06/23 01:37:10;;;;;;;;;7.25;7.25;;;;;;;;5048409;28;9771;-79
2023/06/23 01:39:41;;;;;;;;;8.25;8.25;;;;;;;;5047873;28;8944;-80
2023/06/23 01:42:11;;;;;;;;;8.00;8.00;;;;;;;;5049168;28;8845;-80
2023/06/23 01:44:43;;;;;;;;;9.00;8.00;;;;;;;;5048842;28;8983;-80
2023/06/23 01:47:15;;;;;;;;;8.50;6.75;;;;;;;;5051080;28;9016;-82
2023/06/23 01:49:44;;;;;;;;;7.50;7.50;;;;;;;;5051719;28;8853;-80
2023/06/23 01:52:12;;;;;;;;;9.75;9.75;;;;;;;;5050006;28;8964;-80
2023/06/23 01:54:43;;;;;;;;;8.75;8.50;;;;;;;;5052066;28;8952;-81
2023/06/23 01:57:13;;;;;;;;;10.25;8.50;;;;;;;;5055253;28;8951;-81
2023/06/23 01:59:44;;;;;;;;;10.25;10.25;;;;;;;;5057998;28;8843;-82
2023/06/23 02:02:13;;;;;;;;;7.75;7.75;;;;;;;;5058787;28;8845;-81
2023/06/23 02:04:41;;;;;;;;;9.00;8.50;;;;;;;;5051688;28;8885;-82
2023/06/23 02:07:10;;;;;;;;;9.50;9.25;;;;;;;;5049212;28;8859;-81
2023/06/23 02:09:37;;;;;;;;;9.00;9.00;;;;;;;;5048859;28;8933;-81
2023/06/23 02:12:06;;;;;;;;;10.50;9.00;;;;;;;;5048500;28;9748;-84
2023/06/23 02:14:36;;;;;;;;;7.50;6.25;;;;;;;;5048314;28;8885;-80
2023/06/23 02:17:09;;;;;;;;;9.25;9.25;;;;;;;;5051543;28;8935;-80
2023/06/23 02:19:39;;;;;;;;;11.50;10.25;;;;;;;;5059020;28;8865;-81
2023/06/23 02:22:12;;;;;;;;;11.75;9.00;;;;;;;;5049422;28;8862;-84
2023/06/23 02:24:40;;;;;;;;;9.00;9.00;;;;;;;;5046520;28;8846;-83
2023/06/23 02:27:09;;;;;;;;;12.75;11.25;;;;;;;;5049293;28;9616;-83
2023/06/23 02:29:36;;;;;;;;;10.25;10.25;;;;;;;;5048129;28;8862;-81
2023/06/23 02:32:06;;;;;;;;;7.25;7.25;;;;;;;;5052203;28;9598;-81
2023/06/23 02:34:34;;;;;;;;;10.75;10.50;;;;;;;;5049148;28;8842;-81
2023/06/23 02:37:05;;;;;;;;;9.25;9.25;;;;;;;;5057961;28;8871;-82
2023/06/23 02:39:34;;;;;;;;;9.25;8.25;;;;;;;;5052887;28;8856;-80
2023/06/23 02:42:05;;;;;;;;;9.00;9.00;;;;;;;;5045852;28;8845;-81
2023/06/23 02:44:36;;;;;;;;;10.00;10.00;;;;;;;;5051713;28;8987;-80
2023/06/23 02:47:07;;;;;;;;;7.75;7.75;;;;;;;;5058780;28;8855;-84
2023/06/23 02:49:41;;;;;;;;;8.00;8.00;;;;;;;;5065082;28;9714;-83
2023/06/23 02:52:11;;;;;;;;;9.25;9.25;;;;;;;;5048611;28;8997;-84
2023/06/23 02:54:41;;;;;;;;;8.50;8.50;;;;;;;;5053105;28;8884;-83
2023/06/23 02:57:11;;;;;;;;;8.00;8.00;;;;;;;;5053001;28;8883;-85
2023/06/23 02:59:41;;;;;;;;;10.75;9.00;;;;;;;;5054454;28;8996;-84
2023/06/23 03:02:13;;;;;;;;;12.00;8.75;;;;;;;;5057819;28;8869;-83
2023/06/23 03:04:41;;;;;;;;;8.25;8.25;;;;;;;;5056038;28;8877;-83
2023/06/23 03:07:10;;;;;;;;;9.75;9.75;;;;;;;;5055267;28;8854;-84
2023/06/23 03:09:38;;;;;;;;;6.75;6.75;;;;;;;;5061513;28;8861;-84
2023/06/23 03:12:06;;;;;;;;;8.50;8.50;;;;;;;;5059142;28;8899;-83
2023/06/23 03:14:35;;;;;;;;;7.25;6.75;;;;;;;;5051044;28;8850;-83
2023/06/23 03:17:07;;;;;;;;;10.00;10.00;;;;;;;;5059842;28;8889;-83
2023/06/23 03:19:40;;;;;;;;;11.25;9.00;;;;;;;;5062768;28;8867;-83
2023/06/23 03:22:10;;;;;;;;;9.75;9.75;;;;;;;;5064157;28;8868;-84
2023/06/23 03:24:40;;;;;;;;;10.00;8.00;;;;;;;;5062927;28;8834;-85
2023/06/23 03:27:09;;;;;;;;;8.00;8.00;;;;;;;;5043646;28;8876;-84
2023/06/23 03:29:41;;;;;;;;;9.25;7.50;;;;;;;;5052840;28;8895;-84
2023/06/23 03:32:13;;;;;;;;;9.25;8.50;;;;;;;;5053241;28;8828;-84
2023/06/23 03:34:51;;;;;;;;;12.50;11.00;;;;;;;;5052128;28;8870;-86
2023/06/23 03:37:20;;;;;;;;;9.50;7.50;;;;;;;;5066352;28;8870;-88
2023/06/23 03:39:51;;;;;;;;;11.50;10.75;;;;;;;;5066107;28;8843;-83
2023/06/23 03:42:22;;;;;;;;;9.25;8.00;;;;;;;;5054350;28;8838;-84
2023/06/23 03:44:51;;;;;;;;;9.75;9.75;;;;;;;;5053460;28;8854;-83
2023/06/23 03:47:22;;;;;;;;;9.25;9.25;;;;;;;;5050400;28;8892;-85
2023/06/23 03:49:54;;;;;;;;;11.25;9.50;;;;;;;;5057885;28;8976;-84
2023/06/23 03:52:22;;;;;;;;;9.25;9.25;;;;;;;;5055491;28;8871;-85
2023/06/23 03:54:53;;;;;;;;;11.25;10.50;;;;;;;;5054216;28;9557;-81
2023/06/23 03:57:22;;;;;;;;;6.50;6.50;;;;;;;;5056450;28;8871;-80
2023/06/23 03:59:50;;;;;;;;;8.00;7.25;;;;;;;;5059858;28;8845;-81
2023/06/23 04:02:20;;;;;;;;;9.25;9.25;;;;;;;;5052871;28;8930;-82
2023/06/23 04:04:49;;;;;;;;;11.25;10.25;;;;;;;;5050152;28;8869;-80
2023/06/23 04:07:19;;;;;;;;;10.00;8.50;;;;;;;;5064509;28;8863;-81
2023/06/23 04:09:48;;;;;;;;;12.00;10.75;;;;;;;;5052246;28;8862;-79
2023/06/23 04:12:17;;;;;;;;;13.75;10.00;;;;;;;;5054313;28;8847;-80
2023/06/23 04:14:47;;;;;;;;;10.50;10.50;;;;;;;;5053196;28;8988;-80
2023/06/23 04:17:16;;;;;;;;;10.25;10.00;;;;;;;;5052076;28;8996;-81
2023/06/23 04:19:46;;;;;;;;;11.75;9.00;;;;;;;;5055817;28;8858;-83
2023/06/23 04:22:17;;;;;;;;;14.25;13.25;;;;;;;;5049114;28;8980;-86
2023/06/23 04:24:47;;;;;;;;;8.50;7.75;;;;;;;;5061220;28;8871;-82
2023/06/23 04:27:18;;;;;;;;;13.25;13.25;;;;;;;;5065420;28;8861;-81
2023/06/23 04:29:47;;;;;;;;;9.50;9.00;;;;;;;;5067773;28;8954;-79
2023/06/23 04:32:14;;;;;;;;;10.50;9.00;;;;;;;;5065560;28;8834;-82
2023/06/23 04:34:43;;;;;;;;;12.50;11.00;;;;;;;;5053214;28;8853;-80
2023/06/23 04:37:14;;;;;;;;;15.50;14.50;;;;;;;;5050322;28;8876;-84
2023/06/23 04:39:49;;;;;;;;;13.75;12.00;;;;;;;;5049958;28;8833;-84
2023/06/23 04:42:22;;;;;;;;;12.25;12.25;;;;;;;;5048980;28;8859;-81
2023/06/23 04:44:52;;;;;;;;;8.25;8.25;;;;;;;;5042913;28;8850;-84
2023/06/23 04:47:23;;;;;;;;;13.25;12.25;;;;;;;;5062712;28;8866;-81
2023/06/23 04:49:56;;;;;;;;;11.75;11.75;;;;;;;;5053243;28;8841;-79
2023/06/23 04:52:26;;;;;;;;;9.25;9.25;;;;;;;;5056143;28;8875;-80
2023/06/23 04:54:59;;;;;;;;;12.50;10.75;;;;;;;;5053318;28;8843;-83
2023/06/23 04:57:29;;;;;;;;;12.50;10.75;;;;;;;;5061688;28;8843;-79
2023/06/23 05:00:01;;;;;;;;;11.25;11.25;;;;;;;;5052778;28;8861;-80
2023/06/23 05:02:29;;;;;;;;;12.00;12.00;;;;;;;;5058190;28;8803;-80
2023/06/23 05:04:58;;;;;;;;;14.25;14.25;;;;;;;;5062839;28;8912;-78
2023/06/23 05:07:26;;;;;;;;;13.50;13.50;;;;;;;;5055996;28;8873;-79
2023/06/23 05:09:55;;;;;;;;;12.75;12.75;;;;;;;;5062849;28;8858;-80
2023/06/23 05:12:23;;;;;;;;;19.00;16.00;;;;;;;;5053687;28;8833;-78
2023/06/23 05:14:51;;;;;;;;;14.75;13.25;;;;;;;;5059875;28;8879;-86
2023/06/23 05:17:20;;;;;;;;;19.50;16.50;;;;;;;;5050244;28;8862;-89
2023/06/23 05:19:48;;;;;;;;;13.50;12.00;;;;;;;;5058991;28;9669;-82
2023/06/23 05:22:18;;;;;;;;;20.75;18.75;;;;;;;;5066836;28;8855;-79
2023/06/23 05:24:49;;;;;;;;;15.75;14.00;;;;;;;;5067569;28;9009;-81
2023/06/23 05:27:20;;;;;;;;;13.00;13.00;;;;;;;;5043103;28;8935;-81
2023/06/23 05:29:51;;;;;;;;;14.00;14.00;;;;;;;;5066883;28;8863;-81
2023/06/23 05:32:19;;;;;;;;;14.00;14.00;;;;;;;;5067419;28;8830;-81
2023/06/23 05:34:49;;;;;;;;;15.75;15.75;;;;;;;;5064139;28;8837;-81
2023/06/23 05:37:19;;;;;;;;;19.25;18.25;;;;;;;;5058993;28;8939;-82
2023/06/23 05:39:49;;;;;;;;;14.00;13.75;;;;;;;;5050906;28;8935;-81
2023/06/23 05:42:19;;;;;;;;;18.25;15.75;;;;;;;;5049913;28;8869;-82
2023/06/23 05:44:46;;;;;;;;;16.75;16.75;;;;;;;;5052902;28;8843;-80
2023/06/23 05:47:18;;;;;;;;;15.75;15.75;;;;;;;;5057608;28;8857;-80
2023/06/23 05:49:46;;;;;;;;;18.25;15.00;;;;;;;;5050717;28;9705;-85
2023/06/23 05:52:17;;;;;;;;;15.75;14.75;;;;;;;;5049530;28;8861;-83
2023/06/23 05:54:47;;;;;;;;;17.00;16.25;;;;;;;;5049828;28;8951;-85
2023/06/23 05:57:23;;;;;;;;;15.75;13.75;;;;;;;;5051216;28;8845;-82
2023/06/23 06:00:00;;;;;;;;;13.00;12.25;;;;;;;;5049925;28;8876;-82
2023/06/23 06:02:32;;;;;;;;;12.75;12.50;;;;;;;;5049970;28;8844;-81
2023/06/23 06:05:01;;;;;;;;;12.50;12.50;;;;;;;;5049740;28;8873;-81
2023/06/23 06:07:34;;;;;;;;;14.50;14.50;;;;;;;;5050134;28;8947;-80
2023/06/23 06:10:03;;;;;;;;;15.00;10.50;;;;;;;;5049912;28;8872;-80
2023/06/23 06:12:32;;;;;;;;;16.50;14.75;;;;;;;;5053849;28;8928;-80
2023/06/23 06:15:33;;;;;;;;;17.25;13.00;;;;;;;;5055011;28;8953;-80
2023/06/23 06:18:04;;;;;;;;;16.50;15.25;;;;;;;;5041439;28;8865;-80
2023/06/23 06:20:33;;;;;;;;;12.00;12.00;;;;;;;;5049200;28;8872;-80
2023/06/23 06:23:00;;;;;;;;;10.50;10.50;;;;;;;;5048190;28;8980;-80
2023/06/23 06:25:30;;;;;;;;;13.25;12.00;;;;;;;;5048067;28;8961;-82
2023/06/23 06:27:59;;;;;;;;;14.50;14.50;;;;;;;;5048492;28;8865;-79
2023/06/23 06:30:27;;;;;;;;;17.50;15.00;;;;;;;;5046793;28;9434;-81
2023/06/23 06:32:55;;;;;;;;;10.75;10.75;;;;;;;;5049209;28;8853;-79
2023/06/23 06:35:25;;;;;;;;;17.25;17.25;;;;;;;;5049055;28;8953;-80
2023/06/23 06:37:54;;;;;;;;;19.33;19.33;;;;;;;;5050032;28;8858;-80
2023/06/23 06:40:25;;;;;;;;;34.75;30.75;;;;;;;;5050072;28;9892;-81
2023/06/23 06:42:52;;;;;;;;;48.75;41.00;;;;;;;;5050532;28;10122;-78
2023/06/23 06:45:21;;;;;;;;;47.75;41.00;;;;;;;;5057148;28;10473;-79
2023/06/23 06:47:51;;;;;;;;;38.00;34.75;;;;;;;;5052562;28;10278;-78
2023/06/23 06:50:19;;;;;;;;;25.50;25.25;;;;;;;;5067635;28;9847;-86
2023/06/23 06:52:50;;;;;;;;;17.50;15.75;;;;;;;;5060534;28;9406;-79
2023/06/23 06:55:19;;;;;;;;;12.00;9.00;;;;;;;;5064864;28;8985;-85
2023/06/23 06:57:46;;;;;;;;;14.50;14.25;;;;;;;;5064008;28;9008;-82
2023/06/23 07:00:15;;;;;;;;;13.75;12.00;;;;;;;;5053917;28;8867;-80
2023/06/23 07:02:46;;;;;;;;;14.25;13.25;;;;;;;;5057836;28;8881;-86
2023/06/23 07:05:13;;;;;;;;;16.25;15.50;;;;;;;;5056537;28;8952;-81
2023/06/23 07:07:40;;;;;;;;;15.25;14.25;;;;;;;;5056142;28;8861;-82
2023/06/23 07:10:10;;;;;;;;;15.25;11.75;;;;;;;;5056167;28;8861;-82
2023/06/23 07:12:37;;;;;;;;;14.50;12.00;;;;;;;;5057956;28;8847;-83
2023/06/23 07:15:12;;;;;;;;;13.00;13.00;;;;;;;;5062655;28;8874;-80
2023/06/23 07:17:45;;;;;;;;;13.75;13.75;;;;;;;;5062093;28;8847;-80
2023/06/23 07:20:12;;;;;;;;;9.25;8.75;;;;;;;;5059828;28;9578;-82
2023/06/23 07:22:45;;;;;;;;;14.00;12.50;;;;;;;;5060052;28;8862;-80
2023/06/23 07:25:13;;;;;;;;;14.75;12.75;;;;;;;;5059088;28;8873;-81
2023/06/23 07:27:42;;;;;;;;;12.75;12.75;;;;;;;;5063940;28;8965;-81
2023/06/23 07:30:10;;;;;;;;;15.00;13.00;;;;;;;;5061440;28;8858;-80
2023/06/23 07:32:38;;;;;;;;;13.50;12.25;;;;;;;;5065691;28;9393;-81
2023/06/23 07:35:07;;;;;;;;;12.25;10.75;;;;;;;;5061554;28;8862;-81
2023/06/23 07:37:38;;;;;;;;;7.75;7.75;;;;;;;;5050917;28;8876;-80
2023/06/23 07:40:09;;;;;;;;;12.50;11.00;;;;;;;;5050640;28;8837;-82
2023/06/23 07:42:37;;;;;;;;;13.25;11.75;;;;;;;;5053104;28;8861;-81
2023/06/23 07:45:16;;;;;;;;;12.50;12.50;;;;;;;;5043035;28;8865;-81
2023/06/23 07:47:46;;;;;;;;;11.25;10.00;;;;;;;;5052943;28;8888;-82
2023/06/23 07:50:26;;;;;;;;;10.00;10.00;;;;;;;;5050841;28;8861;-80
2023/06/23 07:52:54;;;;;;;;;13.00;9.50;;;;;;;;5050288;28;8853;-84
2023/06/23 07:55:25;;;;;;;;;12.40;10.80;;;;;;;;5062165;28;8867;-81
2023/06/23 07:57:52;;;;;;;;;9.80;8.00;;;;;;;;5051819;28;8881;-81
2023/06/23 08:00:20;;;;;;;;;35.25;29.25;;;;;;;;5064067;28;8893;-83
2023/06/23 08:02:48;;;;;;;;;9.60;9.60;;;;;;;;5051109;28;8849;-88
2023/06/23 08:05:18;;;;;;;;;9.20;7.60;;;;;;;;5051756;28;8943;-85
2023/06/23 08:07:46;;;;;;;;;9.20;9.20;;;;;;;;5052090;28;8969;-84
2023/06/23 08:10:13;;;;;;;;;9.00;8.80;;;;;;;;5056295;28;8861;-85
2023/06/23 08:12:40;;;;;;;;;8.60;8.60;;;;;;;;5058529;28;8891;-85
2023/06/23 08:15:09;;;;;;;;;9.60;8.00;;;;;;;;5058242;28;8954;-85
2023/06/23 08:17:37;;;;;;;;;8.00;8.00;;;;;;;;5056051;28;8868;-85
2023/06/23 08:20:05;;;;;;;;;8.20;8.00;;;;;;;;5057664;28;8857;-86
2023/06/23 08:22:34;;;;;;;;;11.20;8.00;;;;;;;;5047367;28;8880;-86
2023/06/23 08:25:01;;;;;;;;;8.00;8.00;;;;;;;;5054726;28;8870;-85
2023/06/23 08:27:28;;;;;;;;;10.00;9.60;;;;;;;;5051153;28;8901;-84
2023/06/23 08:29:55;;;;;;;;;6.60;6.60;;;;;;;;5061041;28;8871;-84
2023/06/23 08:32:25;;;;;;;;;7.20;7.20;;;;;;;;5068308;28;8791;-84
2023/06/23 08:34:52;;;;;;;;;9.00;9.00;;;;;;;;5064071;28;8973;-83
2023/06/23 08:37:19;;;;;;;;;8.80;8.40;;;;;;;;5050092;28;8915;-85
2023/06/23 08:39:48;;;;;;;;;10.20;10.20;;;;;;;;5049842;28;9015;-85
2023/06/23 08:42:16;;;;;;;;;9.80;8.60;;;;;;;;5050646;28;9076;-84
2023/06/23 08:44:44;;;;;;;;;13.40;10.40;;;;;;;;5050930;28;8872;-85
2023/06/23 08:47:14;;;;;;;;;8.80;8.20;;;;;;;;5057693;28;8864;-85
2023/06/23 08:49:42;;;;;;;;;8.20;8.20;;;;;;;;5057716;28;8853;-82
2023/06/23 08:52:13;;;;;;;;;16.00;12.60;;;;;;;;5054210;28;8850;-83
2023/06/23 08:54:42;;;;;;;;;16.20;13.60;;;;;;;;5053295;28;9666;-85
2023/06/23 08:57:11;;;;;;;;;10.20;9.00;;;;;;;;5053285;28;8861;-84
2023/06/23 08:59:38;;;;;;;;;8.60;8.60;;;;;;;;5050771;28;8858;-84
2023/06/23 09:02:06;;;;;;;;;8.80;8.80;;;;;;;;5050561;28;8929;-85
2023/06/23 09:04:33;;;;;;;;;6.80;6.00;;;;;;;;5050737;28;8979;-85
2023/06/23 09:07:01;;;;;;;;;10.20;10.20;;;;;;;;5061750;28;8843;-85
2023/06/23 09:09:45;;;;;;;;;10.40;10.00;;;;;;;;5052398;28;8878;-86
2023/06/23 09:12:16;;;;;;;;;15.00;10.80;;;;;;;;5050592;28;8845;-84
2023/06/23 09:14:44;;;;;;;;;8.00;8.00;;;;;;;;5050994;28;8861;-85
2023/06/23 09:17:12;;;;;;;;;8.20;6.00;;;;;;;;5051559;28;8861;-85
2023/06/23 09:19:45;;;;;;;;;11.40;8.40;;;;;;;;5062047;28;8928;-83
2023/06/23 09:22:14;;;;;;;;;14.60;13.20;;;;;;;;5051517;28;8873;-83
2023/06/23 09:24:45;;;;;;;;;8.80;8.80;;;;;;;;5052983;28;8884;-83
2023/06/23 09:27:14;;;;;;;;;10.00;8.80;;;;;;;;5060898;28;8942;-81
2023/06/23 09:29:42;;;;;;;;;7.00;7.00;;;;;;;;5051252;28;8858;-82
2023/06/23 09:32:12;;;;;;;;;9.80;8.40;;;;;;;;5062415;28;8797;-83
2023/06/23 09:34:42;;;;;;;;;8.60;8.60;;;;;;;;5065721;28;8843;-83
2023/06/23 09:37:12;;;;;;;;;9.20;7.80;;;;;;;;5049970;28;8849;-83
2023/06/23 09:39:45;;;;;;;;;12.80;12.80;;;;;;;;5049508;28;8888;-83
2023/06/23 09:42:17;;;;;;;;;8.60;8.60;;;;;;;;5049918;28;8869;-83
2023/06/23 09:44:48;;;;;;;;;6.80;6.80;;;;;;;;5048462;28;8837;-83
2023/06/23 09:47:16;;;;;;;;;11.40;9.80;;;;;;;;5049124;28;8858;-82
2023/06/23 09:49:45;;;;;;;;;13.60;11.40;;;;;;;;5048516;28;9011;-84
2023/06/23 09:52:14;;;;;;;;;10.00;10.00;;;;;;;;5049634;28;8862;-83
2023/06/23 09:54:43;;;;;;;;;9.00;9.00;;;;;;;;5055040;28;8862;-83
2023/06/23 09:57:14;;;;;;;;;10.20;8.40;;;;;;;;5059931;28;8875;-84
2023/06/23 09:59:46;;;;;;;;;8.00;8.00;;;;;;;;5041927;28;8873;-85
2023/06/23 10:02:21;;;;;;;;;13.40;13.40;;;;;;;;5053793;28;8835;-84
2023/06/23 10:04:49;;;;;;;;;8.60;8.60;;;;;;;;5061482;28;9619;-85
2023/06/23 10:07:25;;;;;;;;;8.80;8.80;;;;;;;;5065306;28;8876;-84
2023/06/23 10:09:53;;;;;;;;;9.80;9.00;;;;;;;;5067752;28;8887;-83
2023/06/23 10:12:22;;;;;;;;;10.80;9.40;;;;;;;;5066910;28;8859;-82
2023/06/23 10:14:51;;;;;;;;;10.00;8.00;;;;;;;;5066661;28;8843;-83
2023/06/23 10:17:19;;;;;;;;;8.60;8.60;;;;;;;;5065367;28;8912;-85
2023/06/23 10:19:52;;;;;;;;;10.40;8.40;;;;;;;;5066583;28;8855;-82
2023/06/23 10:22:21;;;;;;;;;6.80;6.80;;;;;;;;5048730;28;8883;-81
2023/06/23 10:24:50;;;;;;;;;8.00;8.00;;;;;;;;5052252;28;8876;-88
2023/06/23 10:27:26;;;;;;;;;10.00;8.40;;;;;;;;5059144;28;8866;-87
2023/06/23 10:29:58;;;;;;;;;4.80;4.80;;;;;;;;5060945;28;8846;-86
2023/06/23 10:32:28;;;;;;;;;6.60;6.40;;;;;;;;5040103;28;8915;-86
2023/06/23 10:34:58;;;;;;;;;5.60;5.60;;;;;;;;5050724;28;8891;-84
2023/06/23 10:37:28;;;;;;;;;6.40;5.60;;;;;;;;5051843;28;8881;-85
2023/06/23 10:39:59;;;;;;;;;5.80;5.80;;;;;;;;5049212;28;8866;-84
2023/06/23 10:42:31;;;;;;;;;6.60;6.40;;;;;;;;5043947;28;8895;-84
2023/06/23 10:45:00;;;;;;;;;6.80;6.80;;;;;;;;5051403;28;8880;-83
2023/06/23 10:47:28;;;;;;;;;6.40;4.00;;;;;;;;5053686;28;8861;-89
2023/06/23 10:49:55;;;;;;;;;5.00;5.00;;;;;;;;5054290;28;8993;-87
2023/06/23 10:52:23;;;;;;;;;6.00;6.00;;;;;;;;5049605;28;8934;-82
2023/06/23 10:54:51;;;;;;;;;7.20;5.80;;;;;;;;5049004;28;8908;-83
2023/06/23 10:57:18;;;;;;;;;6.80;6.60;;;;;;;;5048423;28;9660;-87
2023/06/23 10:59:58;;;;;;;;;7.40;7.40;;;;;;;;5053040;28;8867;-84
2023/06/23 11:02:29;;;;;;;;;5.20;5.20;;;;;;;;5047299;28;8834;-85
2023/06/23 11:05:00;;;;;;;;;7.60;6.80;;;;;;;;5051848;28;8868;-85
2023/06/23 11:07:27;;;;;;;;;6.20;6.20;;;;;;;;5052214;28;8884;-84
2023/06/23 11:10:07;;;;;;;;;7.60;6.60;;;;;;;;5051485;28;8963;-85
2023/06/23 11:12:41;;;;;;;;;5.20;5.20;;;;;;;;5051435;28;8845;-83
2023/06/23 11:15:15;;;;;;;;;6.60;6.60;;;;;;;;5048663;28;8942;-84
2023/06/23 11:17:49;;;;;;;;;9.00;6.00;;;;;;;;5052821;28;8857;-87
2023/06/23 11:20:30;;;;;;;;;6.40;6.40;;;;;;;;5052672;28;8861;-83
2023/06/23 11:23:00;;;;;;;;;8.40;7.00;;;;;;;;5047782;28;8958;-79
2023/06/23 11:25:33;;;;;;;;;5.60;5.60;;;;;;;;5053487;28;8862;-85
2023/06/23 11:28:34;;;;;;;;;4.60;4.60;;;;;;;;5053828;28;8868;-84
2023/06/23 11:31:15;;;;;;;;;9.20;5.80;;;;;;;;5054251;28;8845;-85
2023/06/23 11:33:45;;;;;;;;;7.00;7.00;;;;;;;;5057502;28;8857;-85
2023/06/23 11:36:19;;;;;;;;;6.00;6.00;;;;;;;;5053832;28;8992;-83
2023/06/23 11:38:47;;;;;;;;;4.00;4.00;;;;;;;;5064999;28;8847;-87
2023/06/23 11:41:17;;;;;;;;;5.60;4.40;;;;;;;;5065664;28;8898;-86
2023/06/23 11:43:45;;;;;;;;;6.40;6.40;;;;;;;;5059921;28;8843;-86
2023/06/23 11:46:17;;;;;;;;;5.20;5.20;;;;;;;;5059577;28;8890;-86
2023/06/23 11:48:46;;;;;;;;;5.40;4.40;;;;;;;;5059619;28;8876;-85
2023/06/23 11:51:14;;;;;;;;;4.40;4.40;;;;;;;;5048644;28;8842;-84
2023/06/23 11:53:42;;;;;;;;;5.00;5.00;;;;;;;;5064303;28;8855;-87
2023/06/23 11:56:14;;;;;;;;;6.00;6.00;;;;;;;;5051248;28;8899;-90
2023/06/23 11:58:44;;;;;;;;;5.80;5.00;;;;;;;;5059443;28;8871;-85
2023/06/23 12:01:12;;;;;;;;;5.80;5.80;;;;;;;;5059540;28;8828;-86
2023/06/23 12:03:51;;;;;;;;;6.00;6.00;;;;;;;;5051080;28;8837;-85
2023/06/23 12:06:36;;;;;;;;;5.80;5.80;;;;;;;;5056425;28;8941;-86
2023/06/23 12:09:06;;;;;;;;;5.00;5.00;;;;;;;;5058275;28;8851;-83
2023/06/23 12:11:38;;;;;;;;;7.40;7.00;;;;;;;;5059799;28;8878;-85
2023/06/23 12:14:05;;;;;;;;;2.60;2.60;;;;;;;;5060139;28;8877;-83
2023/06/23 12:16:37;;;;;;;;;4.80;4.80;;;;;;;;5054954;28;8995;-83
2023/06/23 12:19:08;;;;;;;;;4.60;4.60;;;;;;;;5040411;28;8888;-84
2023/06/23 12:21:39;;;;;;;;;6.00;6.00;;;;;;;;5049429;28;8895;-86
2023/06/23 12:24:12;;;;;;;;;4.80;4.80;;;;;;;;5050896;28;8969;-84
2023/06/23 12:26:43;;;;;;;;;5.60;5.60;;;;;;;;5052379;28;8855;-87
2023/06/23 12:29:12;;;;;;;;;5.20;5.20;;;;;;;;5052474;28;8861;-84
2023/06/23 12:31:42;;;;;;;;;6.20;5.80;;;;;;;;5053476;28;8809;-84
2023/06/23 12:34:13;;;;;;;;;5.00;5.00;;;;;;;;5054090;28;8867;-85
2023/06/23 12:36:40;;;;;;;;;5.00;5.00;;;;;;;;5054068;28;8884;-82
2023/06/23 12:39:15;;;;;;;;;7.00;7.00;;;;;;;;5053237;28;8868;-83
2023/06/23 12:41:48;;;;;;;;;5.80;5.80;;;;;;;;5063081;28;8857;-84
2023/06/23 12:44:16;;;;;;;;;8.00;6.80;;;;;;;;5051557;28;8880;-89
2023/06/23 12:46:54;;;;;;;;;6.20;5.20;;;;;;;;5051006;28;8875;-83
2023/06/23 12:49:31;;;;;;;;;4.40;4.40;;;;;;;;5052736;28;8866;-87
2023/06/23 12:52:02;;;;;;;;;5.80;5.80;;;;;;;;5053612;28;8892;-84
2023/06/23 12:54:32;;;;;;;;;5.80;5.80;;;;;;;;5062224;28;9722;-83
2023/06/23 12:57:02;;;;;;;;;5.00;5.00;;;;;;;;5060671;28;8878;-83
2023/06/23 12:59:31;;;;;;;;;6.60;6.60;;;;;;;;5051742;28;8853;-83
2023/06/23 13:02:00;;;;;;;;;5.80;5.00;;;;;;;;5053012;28;8826;-83
2023/06/23 13:04:30;;;;;;;;;8.00;8.00;;;;;;;;5051205;28;8861;-82
2023/06/23 13:06:57;;;;;;;;;9.00;7.40;;;;;;;;5058928;28;8847;-81
2023/06/23 13:09:25;;;;;;;;;6.20;5.80;;;;;;;;5055635;28;8878;-83
2023/06/23 13:11:55;;;;;;;;;6.00;6.00;;;;;;;;5050943;28;8856;-81
2023/06/23 13:14:25;;;;;;;;;5.40;5.40;;;;;;;;5050562;28;8947;-84
2023/06/23 13:16:53;;;;;;;;;8.00;8.00;;;;;;;;5057131;28;8982;-88
2023/06/23 13:19:20;;;;;;;;;6.20;6.20;;;;;;;;5047367;28;8984;-86
2023/06/23 13:21:51;;;;;;;;;8.20;6.80;;;;;;;;5049825;28;8972;-89
2023/06/23 13:24:19;;;;;;;;;3.80;3.80;;;;;;;;5052794;28;8862;-81
2023/06/23 13:26:47;;;;;;;;;8.40;5.20;;;;;;;;5052339;28;8858;-87
2023/06/23 13:29:15;;;;;;;;;5.20;5.20;;;;;;;;5048328;28;8853;-80
2023/06/23 13:31:42;;;;;;;;;5.00;5.00;;;;;;;;5061545;28;8972;-82
2023/06/23 13:34:10;;;;;;;;;4.00;4.00;;;;;;;;5050431;28;8853;-84
2023/06/23 13:36:37;;;;;;;;;4.60;4.60;;;;;;;;5050193;28;8858;-84
2023/06/23 13:39:06;;;;;;;;;4.80;4.80;;;;;;;;5050724;28;8919;-84
2023/06/23 13:41:36;;;;;;;;;4.00;4.00;;;;;;;;5049371;28;8857;-80
2023/06/23 13:44:03;;;;;;;;;3.40;3.40;;;;;;;;5049402;28;8869;-80
2023/06/23 13:46:32;;;;;;;;;5.40;5.40;;;;;;;;5048612;28;9073;-83
2023/06/23 13:49:00;;;;;;;;;6.00;6.00;;;;;;;;5048464;28;9702;-85
2023/06/23 13:51:36;;;;;;;;;5.00;5.00;;;;;;;;5048693;28;8875;-78
2023/06/23 13:54:05;;;;;;;;;6.00;6.00;;;;;;;;5048335;28;8987;-79
2023/06/23 13:56:32;;;;;;;;;6.80;5.60;;;;;;;;5047963;28;8911;-80
2023/06/23 13:59:03;;;;;;;;;8.60;7.00;;;;;;;;5048158;28;9849;-79
2023/06/23 14:01:33;;;;;;;;;4.80;4.80;;;;;;;;5047602;28;8798;-80
2023/06/23 14:04:02;;;;;;;;;5.80;4.40;;;;;;;;5050082;28;8845;-79
2023/06/23 14:06:30;;;;;;;;;7.00;5.80;;;;;;;;5047328;28;8887;-80
2023/06/23 14:08:57;;;;;;;;;7.40;6.00;;;;;;;;5048470;28;8861;-78
2023/06/23 14:11:28;;;;;;;;;6.40;6.40;;;;;;;;5049220;28;8854;-78
2023/06/23 14:13:55;;;;;;;;;5.40;5.40;;;;;;;;5048950;28;8846;-82
2023/06/23 14:16:23;;;;;;;;;5.60;5.00;;;;;;;;5047928;28;8853;-80
2023/06/23 14:18:50;;;;;;;;;5.40;4.20;;;;;;;;5048869;28;8849;-82
2023/06/23 14:21:17;;;;;;;;;5.40;4.60;;;;;;;;5049588;28;8919;-81
2023/06/23 14:23:44;;;;;;;;;5.20;5.20;;;;;;;;5036911;28;8869;-79
2023/06/23 14:26:12;;;;;;;;;5.40;5.40;;;;;;;;5048446;28;9622;-82
2023/06/23 14:28:40;;;;;;;;;5.60;4.40;;;;;;;;5047649;28;8842;-82
2023/06/23 14:31:08;;;;;;;;;5.20;3.80;;;;;;;;5047055;28;8798;-84
2023/06/23 14:33:35;;;;;;;;;6.00;4.40;;;;;;;;5044205;28;8892;-85
2023/06/23 14:36:03;;;;;;;;;5.60;5.00;;;;;;;;5051619;28;8891;-80
2023/06/23 14:38:30;;;;;;;;;5.80;5.80;;;;;;;;5056406;28;8963;-80
2023/06/23 14:40:58;;;;;;;;;4.40;4.40;;;;;;;;5055519;28;8950;-80
2023/06/23 14:43:25;;;;;;;;;4.20;4.20;;;;;;;;5055157;28;8922;-83
2023/06/23 14:45:54;;;;;;;;;6.00;6.00;;;;;;;;5055997;28;8893;-81
2023/06/23 14:48:22;;;;;;;;;4.60;4.60;;;;;;;;5054019;28;9670;-81
2023/06/23 14:50:52;;;;;;;;;4.80;4.80;;;;;;;;5054931;28;8858;-84
2023/06/23 14:53:22;;;;;;;;;7.20;3.80;;;;;;;;5067943;28;8870;-83
2023/06/23 14:55:49;;;;;;;;;4.40;4.40;;;;;;;;5066875;28;8866;-83
2023/06/23 14:58:19;;;;;;;;;5.00;5.00;;;;;;;;5066248;28;9005;-81
2023/06/23 15:00:46;;;;;;;;;5.20;4.60;;;;;;;;5062012;28;8917;-84
2023/06/23 15:03:15;;;;;;;;;5.00;5.00;;;;;;;;5066665;28;8869;-83
2023/06/23 15:05:42;;;;;;;;;5.00;5.00;;;;;;;;5064201;28;8855;-89